createdAt,value
2019-05-22T00:00:26.883Z,18.57
2019-05-22T00:02:55.810Z,19.10
2019-05-22T00:05:27.613Z,18.33
2019-05-22T00:07:56.123Z,18.67
2019-05-22T00:10:26.548Z,18.70
2019-05-22T00:12:57.302Z,18.43
2019-05-22T00:15:25.791Z,18.90
2019-05-22T00:17:54.289Z,19.27
2019-05-22T00:20:25.554Z,19.33
2019-05-22T00:22:54.703Z,19.00
2019-05-22T00:25:25.749Z,18.97
2019-05-22T00:27:54.673Z,19.07
2019-05-22T00:30:25.485Z,19.73
2019-05-22T00:32:53.939Z,19.43
2019-05-22T00:35:24.295Z,19.53
2019-05-22T00:37:54.741Z,19.73
2019-05-22T00:40:24.871Z,19.40
2019-05-22T00:43:03.861Z,20.47
2019-05-22T00:45:25.833Z,20.10
2019-05-22T00:47:54.635Z,21.27
2019-05-22T00:50:33.234Z,21.43
2019-05-22T00:53:05.058Z,22.97
2019-05-22T00:55:41.498Z,21.80
2019-05-22T00:58:15.585Z,22.73
2019-05-22T01:00:45.867Z,22.80
2019-05-22T01:03:16.828Z,23.13
2019-05-22T01:05:45.370Z,23.20
2019-05-22T01:08:15.755Z,22.50
2019-05-22T01:10:47.570Z,22.53
2019-05-22T01:13:18.143Z,22.67
2019-05-22T01:15:48.227Z,23.70
2019-05-22T01:18:16.708Z,24.33
2019-05-22T01:20:48.013Z,24.67
2019-05-22T01:23:20.150Z,23.77
2019-05-22T01:25:49.431Z,24.30
2019-05-22T01:28:19.514Z,23.73
2019-05-22T01:30:50.690Z,24.57
2019-05-22T01:33:21.358Z,24.20
2019-05-22T01:35:51.535Z,24.00
2019-05-22T01:38:23.036Z,24.13
2019-05-22T01:40:54.305Z,25.50
2019-05-22T01:43:25.333Z,25.33
2019-05-22T01:45:53.672Z,24.20
2019-05-22T01:48:26.877Z,24.23
2019-05-22T01:50:57.769Z,24.80
2019-05-22T01:53:29.203Z,24.77
2019-05-22T01:55:59.592Z,25.50
2019-05-22T01:58:30.853Z,24.20
2019-05-22T02:01:00.646Z,24.03
2019-05-22T02:03:30.783Z,25.30
2019-05-22T02:06:00.883Z,25.87
2019-05-22T02:08:30.496Z,25.40
2019-05-22T02:10:59.996Z,25.00
2019-05-22T02:13:33.565Z,24.17
2019-05-22T02:16:02.255Z,25.13
2019-05-22T02:18:33.990Z,24.67
2019-05-22T02:21:04.539Z,26.77
2019-05-22T02:23:34.140Z,25.10
2019-05-22T02:26:05.902Z,25.57
2019-05-22T02:28:36.574Z,26.17
2019-05-22T02:31:07.078Z,25.07
2019-05-22T02:33:38.098Z,26.47
2019-05-22T02:36:07.711Z,26.37
2019-05-22T02:38:37.595Z,26.03
2019-05-22T02:41:08.505Z,27.00
2019-05-22T02:43:37.243Z,27.03
2019-05-22T02:46:07.484Z,25.73
2019-05-22T02:48:37.203Z,26.17
2019-05-22T02:51:07.084Z,26.47
2019-05-22T02:53:35.872Z,26.13
2019-05-22T02:56:06.507Z,26.13
2019-05-22T02:58:35.615Z,26.27
2019-05-22T03:01:06.194Z,25.73
2019-05-22T03:03:36.601Z,25.87
2019-05-22T03:06:09.185Z,26.23
2019-05-22T03:08:59.599Z,26.33
2019-05-22T03:11:35.384Z,24.97
2019-05-22T03:14:09.066Z,26.23
2019-05-22T03:16:54.232Z,25.67
2019-05-22T03:19:32.375Z,27.20
2019-05-22T03:22:03.847Z,25.00
2019-05-22T03:24:35.042Z,25.87
2019-05-22T03:27:05.510Z,25.33
2019-05-22T03:29:43.437Z,25.63
2019-05-22T03:32:12.643Z,25.50
2019-05-22T03:34:41.265Z,24.93
2019-05-22T03:37:10.163Z,25.60
2019-05-22T03:39:39.886Z,26.07
2019-05-22T03:42:09.003Z,26.97
2019-05-22T03:44:39.221Z,24.03
2019-05-22T03:47:09.384Z,24.20
2019-05-22T03:49:38.441Z,24.70
2019-05-22T03:52:09.268Z,25.47
2019-05-22T03:54:38.201Z,25.20
2019-05-22T03:57:07.605Z,24.83
2019-05-22T03:59:36.730Z,25.50
2019-05-22T04:02:05.570Z,24.63
2019-05-22T04:04:36.719Z,23.60
2019-05-22T04:07:07.242Z,25.10
2019-05-22T04:09:36.980Z,24.33
2019-05-22T04:12:06.345Z,25.10
2019-05-22T04:14:37.855Z,26.40
2019-05-22T04:17:08.238Z,25.00
2019-05-22T04:19:48.375Z,24.47
2019-05-22T04:22:08.298Z,26.30
2019-05-22T04:24:38.026Z,27.40
2019-05-22T04:27:06.857Z,27.20
2019-05-22T04:29:37.182Z,25.80
2019-05-22T04:32:17.525Z,26.37
2019-05-22T04:34:47.469Z,25.40
2019-05-22T04:37:17.486Z,26.97
2019-05-22T04:39:48.566Z,25.57
2019-05-22T04:42:18.960Z,26.00
2019-05-22T04:45:09.032Z,27.73
2019-05-22T04:47:39.337Z,26.33
2019-05-22T04:50:10.917Z,25.97
2019-05-22T04:52:39.549Z,26.47
2019-05-22T04:55:10.569Z,25.57
2019-05-22T04:57:39.447Z,25.27
2019-05-22T05:00:11.628Z,25.80
2019-05-22T05:02:40.929Z,25.93
2019-05-22T05:05:11.443Z,24.10
2019-05-22T05:07:41.953Z,25.07
2019-05-22T05:10:11.062Z,25.43
2019-05-22T05:12:41.322Z,23.67
2019-05-22T05:15:10.186Z,25.10
2019-05-22T05:17:38.982Z,24.33
2019-05-22T05:20:21.592Z,23.40
2019-05-22T05:22:48.105Z,24.40
2019-05-22T05:25:17.967Z,24.70
2019-05-22T05:27:47.657Z,24.47
2019-05-22T05:30:22.735Z,24.03
2019-05-22T05:32:51.562Z,23.77
2019-05-22T05:35:20.619Z,25.07
2019-05-22T05:37:50.074Z,23.80
2019-05-22T05:40:38.125Z,26.33
2019-05-22T05:43:07.755Z,25.17
2019-05-22T05:45:39.419Z,23.97
2019-05-22T05:48:10.533Z,24.63
2019-05-22T05:50:40.961Z,24.03
2019-05-22T05:53:14.645Z,23.57
2019-05-22T05:56:04.789Z,23.30
2019-05-22T05:58:34.589Z,23.17
2019-05-22T06:01:10.581Z,22.30
2019-05-22T06:03:41.370Z,22.87
2019-05-22T06:06:12.917Z,23.10
2019-05-22T06:08:43.230Z,22.57
2019-05-22T06:11:23.493Z,23.00
2019-05-22T06:13:52.225Z,22.73
2019-05-22T06:16:24.732Z,23.60
2019-05-22T06:18:57.045Z,22.47
2019-05-22T06:21:24.830Z,23.67
2019-05-22T06:24:03.295Z,22.97
2019-05-22T06:26:49.871Z,21.73
2019-05-22T06:29:20.210Z,21.87
2019-05-22T06:31:57.581Z,23.10
2019-05-22T06:34:26.315Z,22.63
2019-05-22T06:36:58.862Z,22.27
2019-05-22T06:39:28.189Z,22.87
2019-05-22T06:41:56.845Z,22.77
2019-05-22T06:44:36.088Z,23.17
2019-05-22T06:47:06.982Z,22.80
2019-05-22T06:49:38.153Z,22.70
2019-05-22T06:52:07.967Z,22.90
2019-05-22T06:54:37.717Z,24.43
2019-05-22T06:57:09.089Z,22.73
2019-05-22T06:59:37.971Z,22.77
2019-05-22T07:02:06.872Z,22.57
2019-05-22T07:04:36.394Z,23.10
2019-05-22T07:07:06.105Z,23.17
2019-05-22T07:09:35.370Z,22.37
2019-05-22T07:12:05.373Z,23.53
2019-05-22T07:14:34.592Z,23.67
2019-05-22T07:17:04.882Z,23.47
2019-05-22T07:19:33.932Z,22.43
2019-05-22T07:22:02.501Z,21.20
2019-05-22T07:24:31.046Z,23.03
2019-05-22T07:27:03.162Z,22.67
2019-05-22T07:29:32.648Z,22.37
2019-05-22T07:32:02.264Z,23.03
2019-05-22T07:34:31.506Z,21.37
2019-05-22T07:37:00.040Z,21.93
2019-05-22T07:39:28.739Z,24.30
2019-05-22T07:41:57.372Z,22.63
2019-05-22T07:44:25.931Z,23.30
2019-05-22T07:46:55.063Z,25.00
2019-05-22T07:49:23.857Z,23.90
2019-05-22T07:52:00.650Z,24.57
2019-05-22T07:54:23.123Z,23.27
2019-05-22T07:56:52.292Z,23.00
2019-05-22T07:59:21.897Z,22.70
2019-05-22T08:01:50.501Z,21.90
2019-05-22T08:04:19.627Z,22.93
2019-05-22T08:06:48.372Z,23.37
2019-05-22T08:09:19.910Z,24.07
2019-05-22T08:11:48.468Z,23.57
2019-05-22T08:14:18.781Z,22.87
2019-05-22T08:16:48.179Z,22.63
2019-05-22T08:19:16.739Z,22.70
2019-05-22T08:21:45.321Z,23.13
2019-05-22T08:24:14.232Z,21.67
2019-05-22T08:26:53.918Z,22.53
2019-05-22T08:29:15.482Z,23.30
2019-05-22T08:31:44.499Z,23.00
2019-05-22T08:34:14.115Z,23.40
2019-05-22T08:36:43.334Z,23.60
2019-05-22T08:39:14.259Z,24.53
2019-05-22T08:41:44.058Z,22.97
2019-05-22T08:44:16.748Z,24.27
2019-05-22T08:46:44.964Z,24.47
2019-05-22T08:49:14.181Z,22.97
2019-05-22T08:51:42.844Z,24.30
2019-05-22T08:54:13.047Z,22.80
2019-05-22T08:56:44.585Z,21.43
2019-05-22T08:59:19.341Z,22.97
2019-05-22T09:01:44.393Z,24.30
2019-05-22T09:04:13.131Z,22.47
2019-05-22T09:06:42.051Z,23.13
2019-05-22T09:09:10.537Z,23.00
2019-05-22T09:11:39.083Z,22.37
2019-05-22T09:14:07.710Z,22.43
2019-05-22T09:16:36.448Z,23.30
2019-05-22T09:19:05.162Z,23.77
2019-05-22T09:21:34.482Z,23.17
2019-05-22T09:24:04.722Z,22.37
2019-05-22T09:26:33.794Z,22.30
2019-05-22T09:29:02.435Z,23.53
2019-05-22T09:31:31.091Z,23.20
2019-05-22T09:33:59.739Z,23.07
2019-05-22T09:36:28.726Z,22.67
2019-05-22T09:38:57.205Z,21.53
2019-05-22T09:41:25.867Z,22.37
2019-05-22T09:43:54.356Z,19.43
2019-05-22T09:46:24.340Z,20.60
2019-05-22T09:48:53.046Z,21.03
2019-05-22T09:51:21.944Z,20.90
2019-05-22T09:53:51.280Z,20.03
2019-05-22T09:56:20.301Z,21.23
2019-05-22T09:58:49.156Z,21.07
2019-05-22T10:01:17.989Z,22.83
2019-05-22T10:03:47.243Z,22.37
2019-05-22T10:06:15.734Z,23.10
2019-05-22T10:08:44.516Z,22.50
2019-05-22T10:11:14.004Z,22.10
2019-05-22T10:13:45.117Z,23.07
2019-05-22T10:16:13.636Z,22.97
2019-05-22T10:18:42.097Z,24.07
2019-05-22T10:21:11.118Z,22.83
2019-05-22T10:23:40.965Z,23.10
2019-05-22T10:26:10.257Z,21.77
2019-05-22T10:28:39.546Z,22.20
2019-05-22T10:31:08.921Z,21.03
2019-05-22T10:33:38.758Z,20.20
2019-05-22T10:36:08.349Z,21.23
2019-05-22T10:38:37.061Z,20.20
2019-05-22T10:41:06.391Z,19.93
2019-05-22T10:43:35.525Z,19.53
2019-05-22T10:46:04.219Z,19.47
2019-05-22T10:48:32.788Z,20.57
2019-05-22T10:51:01.373Z,20.17
2019-05-22T10:53:34.037Z,19.97
2019-05-22T10:56:00.924Z,19.77
2019-05-22T10:58:30.204Z,19.30
2019-05-22T11:00:58.693Z,19.67
2019-05-22T11:03:27.346Z,19.67
2019-05-22T11:06:06.345Z,18.23
2019-05-22T11:08:29.556Z,19.90
2019-05-22T11:10:57.563Z,20.13
2019-05-22T11:13:26.995Z,21.03
2019-05-22T11:15:56.710Z,21.10
2019-05-22T11:18:25.363Z,20.53
2019-05-22T11:20:53.854Z,20.47
2019-05-22T11:23:22.705Z,21.13
2019-05-22T11:25:51.626Z,19.73
2019-05-22T11:28:20.092Z,19.20
2019-05-22T11:30:48.946Z,19.07
2019-05-22T11:33:17.897Z,18.33
2019-05-22T11:35:46.508Z,17.83
2019-05-22T11:38:16.029Z,18.70
2019-05-22T11:40:45.267Z,16.70
2019-05-22T11:43:14.857Z,17.47
2019-05-22T11:45:45.342Z,16.03
2019-05-22T11:48:14.256Z,16.57
2019-05-22T11:50:43.935Z,15.70
2019-05-22T11:53:14.344Z,15.07
2019-05-22T11:55:45.849Z,14.67
2019-05-22T11:58:13.577Z,15.00
2019-05-22T12:00:42.340Z,15.27
2019-05-22T12:03:12.053Z,15.17
2019-05-22T12:05:40.839Z,14.20
2019-05-22T12:08:11.244Z,15.57
2019-05-22T12:10:40.301Z,14.97
2019-05-22T12:13:09.657Z,14.20
2019-05-22T12:15:39.229Z,13.77
2019-05-22T12:18:10.402Z,14.97
2019-05-22T12:20:39.471Z,14.80
2019-05-22T12:23:08.207Z,14.17
2019-05-22T12:25:36.912Z,14.17
2019-05-22T12:28:05.729Z,15.03
2019-05-22T12:30:35.503Z,16.03
2019-05-22T12:33:12.597Z,13.93
2019-05-22T12:35:35.277Z,14.77
2019-05-22T12:38:04.979Z,14.17
2019-05-22T12:40:35.059Z,14.80
2019-05-22T12:43:04.176Z,14.77
2019-05-22T12:45:33.463Z,14.30
2019-05-22T12:48:02.718Z,15.43
2019-05-22T12:50:31.859Z,13.77
2019-05-22T12:53:06.718Z,14.50
2019-05-22T12:55:35.359Z,14.73
2019-05-22T12:58:05.788Z,14.70
2019-05-22T13:00:35.569Z,15.40
2019-05-22T13:03:04.826Z,15.50
2019-05-22T13:05:36.572Z,15.13
2019-05-22T13:08:05.979Z,16.63
2019-05-22T13:10:36.139Z,14.27
2019-05-22T13:13:04.849Z,15.53
2019-05-22T13:15:35.364Z,15.47
2019-05-22T13:18:05.745Z,14.57
2019-05-22T13:20:42.911Z,14.57
2019-05-22T13:23:09.279Z,13.43
2019-05-22T13:25:39.693Z,13.93
2019-05-22T13:28:10.839Z,13.57
2019-05-22T13:30:42.543Z,14.40
2019-05-22T13:33:15.971Z,13.90
2019-05-22T13:35:45.365Z,15.17
2019-05-22T13:38:14.817Z,14.07
2019-05-22T13:40:44.382Z,15.53
2019-05-22T13:43:13.189Z,15.70
2019-05-22T13:45:42.158Z,19.03
2019-05-22T13:48:11.499Z,16.50
2019-05-22T13:50:40.420Z,16.87
2019-05-22T13:53:10.890Z,18.93
2019-05-22T13:55:39.589Z,18.57
2019-05-22T13:58:08.978Z,18.67
2019-05-22T14:00:37.981Z,19.23
2019-05-22T14:03:07.070Z,20.50
2019-05-22T14:05:36.413Z,19.53
2019-05-22T14:08:06.611Z,20.10
2019-05-22T14:10:35.334Z,19.57
2019-05-22T14:13:04.404Z,19.37
2019-05-22T14:15:50.061Z,20.53
2019-05-22T14:18:03.748Z,20.47
2019-05-22T14:20:32.367Z,20.17
2019-05-22T14:23:01.071Z,20.20
2019-05-22T14:25:30.764Z,21.50
2019-05-22T14:27:59.326Z,19.30
2019-05-22T14:30:28.654Z,19.57
2019-05-22T14:33:03.839Z,18.67
2019-05-22T14:35:46.995Z,18.50
2019-05-22T14:38:01.841Z,19.20
2019-05-22T14:40:32.415Z,18.67
2019-05-22T14:43:01.280Z,18.07
2019-05-22T14:45:30.422Z,18.97
2019-05-22T14:47:59.032Z,18.17
2019-05-22T14:50:32.373Z,19.43
2019-05-22T14:52:58.978Z,18.60
2019-05-22T14:55:28.370Z,16.90
2019-05-22T14:57:57.074Z,16.60
2019-05-22T15:00:27.255Z,17.87
2019-05-22T15:02:58.504Z,17.20
2019-05-22T15:05:26.402Z,16.07
2019-05-22T15:07:54.967Z,16.27
2019-05-22T15:10:26.561Z,17.07
2019-05-22T15:12:55.099Z,16.50
2019-05-22T15:15:24.163Z,15.33
2019-05-22T15:17:52.823Z,15.93
2019-05-22T15:20:25.417Z,15.00
2019-05-22T15:22:56.236Z,15.03
2019-05-22T15:25:25.132Z,15.73
2019-05-22T15:27:53.716Z,14.60
2019-05-22T15:30:22.410Z,14.27
2019-05-22T15:32:51.061Z,13.70
2019-05-22T15:35:20.172Z,13.87
2019-05-22T15:37:49.236Z,13.70
2019-05-22T15:40:19.272Z,13.90
2019-05-22T15:42:48.162Z,14.50
2019-05-22T15:45:23.117Z,14.20
2019-05-22T15:47:56.351Z,14.50
2019-05-22T15:50:30.295Z,14.27
2019-05-22T15:53:04.099Z,13.97
2019-05-22T15:55:33.898Z,14.53
2019-05-22T15:58:05.282Z,13.33
2019-05-22T16:00:36.574Z,13.37
2019-05-22T16:03:15.172Z,12.83
2019-05-22T16:05:45.143Z,12.00
2019-05-22T16:08:14.826Z,13.10
2019-05-22T16:10:46.571Z,12.87
2019-05-22T16:13:17.219Z,13.60
2019-05-22T16:15:49.013Z,12.63
2019-05-22T16:18:20.197Z,12.50
2019-05-22T16:20:49.633Z,12.67
2019-05-22T16:23:21.703Z,13.80
2019-05-22T16:25:51.071Z,12.90
2019-05-22T16:28:20.268Z,12.93
2019-05-22T16:30:48.916Z,13.70
2019-05-22T16:33:18.446Z,12.70
2019-05-22T16:35:47.498Z,12.90
2019-05-22T16:38:16.804Z,13.20
2019-05-22T16:40:45.994Z,13.17
2019-05-22T16:43:15.416Z,12.83
2019-05-22T16:45:44.179Z,12.43
2019-05-22T16:48:27.749Z,12.27
2019-05-22T16:50:46.226Z,11.70
2019-05-22T16:53:16.100Z,12.10
2019-05-22T16:55:45.341Z,11.30
2019-05-22T16:58:15.215Z,11.40
2019-05-22T17:00:45.330Z,10.40
2019-05-22T17:03:15.952Z,11.50
2019-05-22T17:05:45.059Z,11.50
2019-05-22T17:08:14.941Z,11.67
2019-05-22T17:10:43.614Z,11.50
2019-05-22T17:13:14.698Z,11.30
2019-05-22T17:15:43.879Z,11.50
2019-05-22T17:18:15.415Z,10.57
2019-05-22T17:20:44.796Z,11.30
2019-05-22T17:23:13.823Z,10.90
2019-05-22T17:25:43.431Z,9.80
2019-05-22T17:28:12.290Z,10.27
2019-05-22T17:30:41.231Z,11.50
2019-05-22T17:33:10.812Z,12.20
2019-05-22T17:35:40.610Z,10.93
2019-05-22T17:38:10.569Z,10.87
2019-05-22T17:40:40.221Z,10.20
2019-05-22T17:43:10.251Z,10.67
2019-05-22T17:45:40.408Z,11.83
2019-05-22T17:48:09.445Z,11.03
2019-05-22T17:50:38.107Z,11.60
2019-05-22T17:53:07.497Z,10.43
2019-05-22T17:55:37.689Z,10.90
2019-05-22T17:58:07.170Z,10.80
2019-05-22T18:00:37.869Z,10.37
2019-05-22T18:03:07.039Z,10.40
2019-05-22T18:05:36.664Z,10.50
2019-05-22T18:08:05.987Z,9.80
2019-05-22T18:10:40.469Z,9.50
2019-05-22T18:13:09.869Z,8.87
2019-05-22T18:15:38.861Z,8.70
2019-05-22T18:18:09.411Z,8.67
2019-05-22T18:20:43.250Z,9.07
2019-05-22T18:23:08.963Z,8.03
2019-05-22T18:25:37.891Z,8.40
2019-05-22T18:28:07.441Z,7.87
2019-05-22T18:30:37.805Z,8.53
2019-05-22T18:33:07.295Z,8.07
2019-05-22T18:35:36.259Z,8.53
2019-05-22T18:38:05.149Z,9.17
2019-05-22T18:40:34.094Z,8.80
2019-05-22T18:43:02.562Z,8.50
2019-05-22T18:45:32.758Z,8.43
2019-05-22T18:48:01.317Z,8.37
2019-05-22T18:50:29.947Z,8.17
2019-05-22T18:52:58.557Z,8.33
2019-05-22T18:55:27.514Z,8.37
2019-05-22T18:57:56.153Z,8.07
2019-05-22T19:00:26.547Z,8.67
2019-05-22T19:02:55.461Z,8.10
2019-05-22T19:05:27.582Z,8.10
2019-05-22T19:07:56.153Z,8.37
2019-05-22T19:10:25.410Z,8.03
2019-05-22T19:12:54.021Z,8.80
2019-05-22T19:15:23.547Z,8.57
2019-05-22T19:17:52.076Z,9.00
2019-05-22T19:20:20.561Z,8.57
2019-05-22T19:22:59.604Z,9.10
2019-05-22T19:25:19.822Z,8.37
2019-05-22T19:27:48.727Z,8.80
2019-05-22T19:30:19.517Z,9.70
2019-05-22T19:32:48.798Z,9.23
2019-05-22T19:35:17.545Z,9.17
2019-05-22T19:37:46.939Z,8.63
2019-05-22T19:40:17.606Z,8.47
2019-05-22T19:42:46.232Z,8.97
2019-05-22T19:45:15.659Z,8.03
2019-05-22T19:47:52.809Z,8.77
2019-05-22T19:50:23.911Z,8.73
2019-05-22T19:52:54.859Z,8.90
2019-05-22T19:55:25.911Z,9.30
2019-05-22T19:57:55.020Z,8.47
2019-05-22T20:00:23.565Z,7.80
2019-05-22T20:02:52.949Z,7.90
2019-05-22T20:05:22.821Z,7.77
2019-05-22T20:07:51.940Z,7.70
2019-05-22T20:10:21.759Z,7.13
2019-05-22T20:12:50.649Z,7.30
2019-05-22T20:15:19.835Z,7.53
2019-05-22T20:17:48.452Z,7.10
2019-05-22T20:20:19.798Z,7.73
2019-05-22T20:22:49.610Z,6.93
2019-05-22T20:25:20.401Z,7.00
2019-05-22T20:27:49.004Z,6.80
2019-05-22T20:30:20.174Z,6.73
2019-05-22T20:32:49.948Z,7.10
2019-05-22T20:35:18.651Z,6.90
2019-05-22T20:37:47.671Z,6.30
2019-05-22T20:40:18.410Z,6.70
2019-05-22T20:42:46.946Z,6.50
2019-05-22T20:45:17.516Z,6.60
2019-05-22T20:47:46.865Z,6.33
2019-05-22T20:50:15.671Z,7.20
2019-05-22T20:52:45.503Z,7.57
2019-05-22T20:55:14.700Z,7.13
2019-05-22T20:57:44.014Z,7.20
2019-05-22T21:00:14.957Z,6.67
2019-05-22T21:02:45.451Z,7.30
2019-05-22T21:05:16.136Z,7.30
2019-05-22T21:07:49.740Z,7.13
2019-05-22T21:10:22.537Z,8.13
2019-05-22T21:12:51.851Z,7.73
2019-05-22T21:15:22.067Z,8.13
2019-05-22T21:17:52.179Z,8.40
2019-05-22T21:20:22.376Z,8.80
2019-05-22T21:22:51.932Z,8.73
2019-05-22T21:25:20.745Z,8.67
2019-05-22T21:27:49.377Z,8.87
2019-05-22T21:30:19.204Z,8.63
2019-05-22T21:32:49.018Z,8.50
2019-05-22T21:35:19.206Z,9.17
2019-05-22T21:37:47.900Z,8.10
2019-05-22T21:40:19.880Z,9.20
2019-05-22T21:42:49.103Z,8.77
2019-05-22T21:45:18.135Z,9.43
2019-05-22T21:47:46.833Z,10.27
2019-05-22T21:50:16.738Z,9.80
2019-05-22T21:52:45.734Z,9.43
2019-05-22T21:55:16.018Z,9.27
2019-05-22T21:57:45.778Z,9.53
2019-05-22T22:00:24.664Z,9.50
2019-05-22T22:02:55.873Z,9.33
2019-05-22T22:05:25.343Z,9.07
2019-05-22T22:07:54.174Z,9.37
2019-05-22T22:10:22.707Z,10.67
2019-05-22T22:12:52.250Z,9.80
2019-05-22T22:15:22.143Z,9.63
2019-05-22T22:17:52.939Z,9.30
2019-05-22T22:20:22.145Z,9.87
2019-05-22T22:22:51.334Z,10.73
2019-05-22T22:25:22.122Z,11.17
2019-05-22T22:27:50.719Z,10.30
2019-05-22T22:30:24.065Z,10.73
2019-05-22T22:32:54.228Z,10.10
2019-05-22T22:35:23.059Z,11.10
2019-05-22T22:37:51.641Z,10.63
2019-05-22T22:40:24.313Z,10.83
2019-05-22T22:42:54.317Z,10.93
2019-05-22T22:45:35.417Z,10.03
2019-05-22T22:48:04.531Z,9.77
2019-05-22T22:50:32.991Z,9.03
2019-05-22T22:53:03.976Z,9.73
2019-05-22T22:55:33.806Z,9.83
2019-05-22T22:58:15.979Z,9.90
2019-05-22T23:00:34.277Z,10.00
2019-05-22T23:03:04.247Z,9.93
2019-05-22T23:12:53.931Z,10.23
2019-05-22T23:15:24.445Z,10.23
2019-05-22T23:17:53.554Z,9.83
2019-05-22T23:20:21.299Z,9.60
2019-05-22T23:22:49.376Z,9.43
2019-05-22T23:25:19.416Z,10.30
2019-05-22T23:27:48.510Z,10.17
2019-05-22T23:30:18.599Z,9.83
2019-05-22T23:32:47.195Z,10.13
2019-05-22T23:35:17.183Z,10.50
2019-05-22T23:37:46.281Z,11.13
2019-05-22T23:40:18.626Z,13.20
2019-05-22T23:42:48.172Z,11.13
2019-05-22T23:45:20.518Z,11.07
2019-05-22T23:48:05.589Z,9.77
2019-05-22T23:50:36.846Z,10.67
2019-05-22T23:53:05.818Z,9.27
2019-05-22T23:55:35.182Z,10.23
2019-05-22T23:58:05.475Z,9.47
